sensor_id;sensor_type;location;lat;lon;timestamp;pressure;altitude;pressure_sealevel;temperature;humidity
66398;BME280;54877;51.504;3.894;2023-11-21T00:00:20;101168.38;;;12.13;71.48
66398;BME280;54877;51.504;3.894;2023-11-21T00:02:45;101175.47;;;12.12;71.50
66398;BME280;54877;51.504;3.894;2023-11-21T00:05:11;101166.59;;;12.13;71.55
66398;BME280;54877;51.504;3.894;2023-11-21T00:07:38;101169.19;;;12.15;71.67
66398;BME280;54877;51.504;3.894;2023-11-21T00:10:04;101171.66;;;12.18;71.81
66398;BME280;54877;51.504;3.894;2023-11-21T00:12:33;101169.00;;;12.18;71.83
66398;BME280;54877;51.504;3.894;2023-11-21T00:14:58;101168.94;;;12.19;71.59
66398;BME280;54877;51.504;3.894;2023-11-21T00:17:23;101167.16;;;12.20;71.79
66398;BME280;54877;51.504;3.894;2023-11-21T00:19:49;101167.94;;;12.22;71.82
66398;BME280;54877;51.504;3.894;2023-11-21T00:22:14;101171.50;;;12.21;71.63
66398;BME280;54877;51.504;3.894;2023-11-21T00:24:41;101167.16;;;12.20;71.70
66398;BME280;54877;51.504;3.894;2023-11-21T00:27:06;101167.16;;;12.20;71.55
66398;BME280;54877;51.504;3.894;2023-11-21T00:29:31;101167.94;;;12.22;71.77
66398;BME280;54877;51.504;3.894;2023-11-21T00:31:57;101172.31;;;12.23;71.82
66398;BME280;54877;51.504;3.894;2023-11-21T00:34:23;101166.03;;;12.24;71.96
66398;BME280;54877;51.504;3.894;2023-11-21T00:36:48;101172.16;;;12.26;72.06
66398;BME280;54877;51.504;3.894;2023-11-21T00:39:13;101172.06;;;12.27;71.98
66398;BME280;54877;51.504;3.894;2023-11-21T00:41:38;101176.44;;;12.28;71.84
66398;BME280;54877;51.504;3.894;2023-11-21T00:44:04;101180.75;;;12.31;71.98
66398;BME280;54877;51.504;3.894;2023-11-21T00:46:29;101174.56;;;12.30;71.86
66398;BME280;54877;51.504;3.894;2023-11-21T00:48:55;101182.44;;;12.32;71.94
66398;BME280;54877;51.504;3.894;2023-11-21T00:51:20;101185.91;;;12.34;72.06
66398;BME280;54877;51.504;3.894;2023-11-21T00:53:45;101191.06;;;12.37;72.23
66398;BME280;54877;51.504;3.894;2023-11-21T00:56:11;101190.03;;;12.40;72.21
66398;BME280;54877;51.504;3.894;2023-11-21T00:58:37;101187.28;;;12.41;72.14
66398;BME280;54877;51.504;3.894;2023-11-21T01:01:02;101180.09;;;12.43;71.94
66398;BME280;54877;51.504;3.894;2023-11-21T01:03:28;101181.03;;;12.42;72.06
66398;BME280;54877;51.504;3.894;2023-11-21T01:05:53;101182.69;;;12.45;72.24
66398;BME280;54877;51.504;3.894;2023-11-21T01:08:18;101182.59;;;12.46;72.37
66398;BME280;54877;51.504;3.894;2023-11-21T01:10:44;101190.50;;;12.48;72.19
66398;BME280;54877;51.504;3.894;2023-11-21T01:13:10;101184.22;;;12.49;72.07
66398;BME280;54877;51.504;3.894;2023-11-21T01:15:35;101189.47;;;12.50;72.21
66398;BME280;54877;51.504;3.894;2023-11-21T01:18:01;101186.81;;;12.50;72.19
66398;BME280;54877;51.504;3.894;2023-11-21T01:20:26;101198.22;;;12.52;72.22
66398;BME280;54877;51.504;3.894;2023-11-21T01:22:51;101201.72;;;12.53;72.24
66398;BME280;54877;51.504;3.894;2023-11-21T01:25:16;101204.28;;;12.54;72.41
66398;BME280;54877;51.504;3.894;2023-11-21T01:27:42;101214.00;;;12.55;72.29
66398;BME280;54877;51.504;3.894;2023-11-21T01:30:08;101207.75;;;12.56;72.38
66398;BME280;54877;51.504;3.894;2023-11-21T01:32:35;101212.91;;;12.59;72.45
66398;BME280;54877;51.504;3.894;2023-11-21T01:35:01;101223.53;;;12.59;72.22
66398;BME280;54877;51.504;3.894;2023-11-21T01:37:26;101215.47;;;12.61;72.23
66398;BME280;54877;51.504;3.894;2023-11-21T01:39:53;101219.28;;;12.55;72.47
66398;BME280;54877;51.504;3.894;2023-11-21T01:42:18;101221.69;;;12.60;72.80
66398;BME280;54877;51.504;3.894;2023-11-21T01:44:43;101230.38;;;12.63;72.99
66398;BME280;54877;51.504;3.894;2023-11-21T01:47:09;101239.13;;;12.65;73.03
66398;BME280;54877;51.504;3.894;2023-11-21T01:49:34;101235.53;;;12.66;73.23
66398;BME280;54877;51.504;3.894;2023-11-21T01:52:00;101230.94;;;12.70;73.22
66398;BME280;54877;51.504;3.894;2023-11-21T01:54:26;101235.38;;;12.69;73.26
66398;BME280;54877;51.504;3.894;2023-11-21T01:56:52;101227.31;;;12.71;73.29
66398;BME280;54877;51.504;3.894;2023-11-21T01:59:21;101230.84;;;12.71;73.21
66398;BME280;54877;51.504;3.894;2023-11-21T02:01:46;101229.91;;;12.72;73.13
66398;BME280;54877;51.504;3.894;2023-11-21T02:04:12;101233.50;;;12.71;73.41
66398;BME280;54877;51.504;3.894;2023-11-21T02:06:37;101231.59;;;12.73;73.45
66398;BME280;54877;51.504;3.894;2023-11-21T02:09:03;101238.66;;;12.74;73.51
66398;BME280;54877;51.504;3.894;2023-11-21T02:11:29;101240.38;;;12.75;73.46
66398;BME280;54877;51.504;3.894;2023-11-21T02:13:55;101243.81;;;12.77;73.25
66398;BME280;54877;51.504;3.894;2023-11-21T02:16:20;101244.69;;;12.78;73.50
66398;BME280;54877;51.504;3.894;2023-11-21T02:18:46;101244.69;;;12.78;73.56
66398;BME280;54877;51.504;3.894;2023-11-21T02:21:13;101241.06;;;12.79;73.63
66398;BME280;54877;51.504;3.894;2023-11-21T02:23:39;101243.66;;;12.80;73.66
66398;BME280;54877;51.504;3.894;2023-11-21T02:26:07;101244.41;;;12.82;73.74
66398;BME280;54877;51.504;3.894;2023-11-21T02:28:32;101247.34;;;12.78;73.98
66398;BME280;54877;51.504;3.894;2023-11-21T02:30:58;101247.06;;;12.82;73.96
66398;BME280;54877;51.504;3.894;2023-11-21T02:33:24;101248.81;;;12.83;73.88
66398;BME280;54877;51.504;3.894;2023-11-21T02:35:49;101251.38;;;12.85;74.00
66398;BME280;54877;51.504;3.894;2023-11-21T02:38:14;101243.34;;;12.86;74.07
66398;BME280;54877;51.504;3.894;2023-11-21T02:40:41;101245.91;;;12.88;74.13
66398;BME280;54877;51.504;3.894;2023-11-21T02:43:06;101259.94;;;12.90;74.07
66398;BME280;54877;51.504;3.894;2023-11-21T02:45:32;101258.16;;;12.90;74.00
66398;BME280;54877;51.504;3.894;2023-11-21T02:47:57;101253.72;;;12.91;74.00
66398;BME280;54877;51.504;3.894;2023-11-21T02:50:23;101253.63;;;12.92;74.21
66398;BME280;54877;51.504;3.894;2023-11-21T02:52:48;101259.72;;;12.94;74.21
66398;BME280;54877;51.504;3.894;2023-11-21T02:55:13;101258.78;;;12.95;74.15
66398;BME280;54877;51.504;3.894;2023-11-21T02:57:39;101258.63;;;12.98;73.96
66398;BME280;54877;51.504;3.894;2023-11-21T03:00:04;101251.59;;;12.98;73.99
66398;BME280;54877;51.504;3.894;2023-11-21T03:02:32;101253.28;;;12.98;74.12
66398;BME280;54877;51.504;3.894;2023-11-21T03:04:57;101261.22;;;13.00;73.97
66398;BME280;54877;51.504;3.894;2023-11-21T03:07:23;101268.22;;;13.01;74.20
66398;BME280;54877;51.504;3.894;2023-11-21T03:09:48;101257.53;;;13.03;74.21
66398;BME280;54877;51.504;3.894;2023-11-21T03:12:13;101267.19;;;13.04;74.15
66398;BME280;54877;51.504;3.894;2023-11-21T03:14:39;101271.53;;;13.06;74.20
66398;BME280;54877;51.504;3.894;2023-11-21T03:17:05;101272.34;;;13.07;74.22
66398;BME280;54877;51.504;3.894;2023-11-21T03:19:30;101267.94;;;13.07;74.30
66398;BME280;54877;51.504;3.894;2023-11-21T03:21:56;101274.13;;;13.08;74.23
66398;BME280;54877;51.504;3.894;2023-11-21T03:24:21;101280.31;;;13.07;74.32
66398;BME280;54877;51.504;3.894;2023-11-21T03:26:47;101269.78;;;13.05;74.35
66398;BME280;54877;51.504;3.894;2023-11-21T03:29:13;101280.31;;;13.07;74.30
66398;BME280;54877;51.504;3.894;2023-11-21T03:31:38;101284.75;;;13.08;74.37
66398;BME280;54877;51.504;3.894;2023-11-21T03:34:04;101289.19;;;13.07;74.50
66398;BME280;54877;51.504;3.894;2023-11-21T03:36:29;101287.31;;;13.09;74.38
66398;BME280;54877;51.504;3.894;2023-11-21T03:38:54;101293.50;;;13.10;74.25
66398;BME280;54877;51.504;3.894;2023-11-21T03:41:20;101297.13;;;13.09;74.39
66398;BME280;54877;51.504;3.894;2023-11-21T03:43:45;101306.78;;;13.10;74.48
66398;BME280;54877;51.504;3.894;2023-11-21T03:46:11;101312.09;;;13.10;74.38
66398;BME280;54877;51.504;3.894;2023-11-21T03:48:37;101309.44;;;13.10;74.39
66398;BME280;54877;51.504;3.894;2023-11-21T03:51:02;101319.06;;;13.12;74.42
66398;BME280;54877;51.504;3.894;2023-11-21T03:53:28;101314.75;;;13.10;74.45
66398;BME280;54877;51.504;3.894;2023-11-21T03:55:53;101311.19;;;13.11;74.56
66398;BME280;54877;51.504;3.894;2023-11-21T03:58:19;101317.34;;;13.11;74.59
66398;BME280;54877;51.504;3.894;2023-11-21T04:00:44;101309.28;;;13.13;74.62
66398;BME280;54877;51.504;3.894;2023-11-21T04:03:09;101311.00;;;13.14;74.63
66398;BME280;54877;51.504;3.894;2023-11-21T04:05:35;101312.72;;;13.15;74.55
66398;BME280;54877;51.504;3.894;2023-11-21T04:08:00;101316.34;;;13.14;74.35
66398;BME280;54877;51.504;3.894;2023-11-21T04:10:25;101321.66;;;13.14;74.43
66398;BME280;54877;51.504;3.894;2023-11-21T04:12:51;101320.78;;;13.13;74.27
66398;BME280;54877;51.504;3.894;2023-11-21T04:15:16;101319.00;;;13.14;74.50
66398;BME280;54877;51.504;3.894;2023-11-21T04:17:42;101326.19;;;13.12;74.46
66398;BME280;54877;51.504;3.894;2023-11-21T04:20:08;101325.25;;;13.13;74.50
66398;BME280;54877;51.504;3.894;2023-11-21T04:22:35;101331.50;;;13.12;74.60
66398;BME280;54877;51.504;3.894;2023-11-21T04:25:01;101339.50;;;13.12;74.74
66398;BME280;54877;51.504;3.894;2023-11-21T04:27:26;101344.81;;;13.12;74.61
66398;BME280;54877;51.504;3.894;2023-11-21T04:29:52;101356.38;;;13.11;74.77
66398;BME280;54877;51.504;3.894;2023-11-21T04:32:17;101354.63;;;13.10;74.88
66398;BME280;54877;51.504;3.894;2023-11-21T04:34:42;101357.28;;;13.10;74.94
66398;BME280;54877;51.504;3.894;2023-11-21T04:37:07;101362.72;;;13.08;75.27
66398;BME280;54877;51.504;3.894;2023-11-21T04:39:34;101361.84;;;13.08;75.38
66398;BME280;54877;51.504;3.894;2023-11-21T04:42:00;101363.56;;;13.09;75.38
66398;BME280;54877;51.504;3.894;2023-11-21T04:44:25;101358.25;;;13.09;75.29
66398;BME280;54877;51.504;3.894;2023-11-21T04:46:50;101361.75;;;13.09;75.12
66398;BME280;54877;51.504;3.894;2023-11-21T04:49:15;101362.72;;;13.08;75.26
66398;BME280;54877;51.504;3.894;2023-11-21T04:51:40;101364.50;;;13.08;75.25
66398;BME280;54877;51.504;3.894;2023-11-21T04:54:06;101363.69;;;13.06;75.41
66398;BME280;54877;51.504;3.894;2023-11-21T04:56:31;101364.63;;;13.05;75.53
66398;BME280;54877;51.504;3.894;2023-11-21T04:58:56;101369.06;;;13.04;75.36
66398;BME280;54877;51.504;3.894;2023-11-21T05:01:21;101373.53;;;13.04;75.51
66398;BME280;54877;51.504;3.894;2023-11-21T05:03:47;101378.84;;;13.04;75.56
66398;BME280;54877;51.504;3.894;2023-11-21T05:06:12;101373.72;;;13.01;75.51
66398;BME280;54877;51.504;3.894;2023-11-21T05:08:39;101384.34;;;13.01;75.41
66398;BME280;54877;51.504;3.894;2023-11-21T05:11:04;101387.00;;;13.01;75.39
66398;BME280;54877;51.504;3.894;2023-11-21T05:13:29;101387.91;;;13.00;75.33
66398;BME280;54877;51.504;3.894;2023-11-21T05:15:55;101396.91;;;12.97;75.42
66398;BME280;54877;51.504;3.894;2023-11-21T05:18:23;101405.03;;;12.94;75.47
66398;BME280;54877;51.504;3.894;2023-11-21T05:20:52;101405.91;;;12.94;75.48
66398;BME280;54877;51.504;3.894;2023-11-21T05:23:17;101405.91;;;12.94;75.34
66398;BME280;54877;51.504;3.894;2023-11-21T05:25:42;101405.91;;;12.94;75.45
66398;BME280;54877;51.504;3.894;2023-11-21T05:28:07;101411.22;;;12.94;75.55
66398;BME280;54877;51.504;3.894;2023-11-21T05:30:32;101415.66;;;12.94;75.41
66398;BME280;54877;51.504;3.894;2023-11-21T05:32:58;101420.13;;;12.93;75.52
66398;BME280;54877;51.504;3.894;2023-11-21T05:35:26;101428.03;;;12.95;75.57
66398;BME280;54877;51.504;3.894;2023-11-21T05:37:51;101427.06;;;12.96;75.54
66398;BME280;54877;51.504;3.894;2023-11-21T05:40:17;101429.72;;;12.96;75.59
66398;BME280;54877;51.504;3.894;2023-11-21T05:42:42;101431.47;;;12.97;75.65
66398;BME280;54877;51.504;3.894;2023-11-21T05:45:08;101434.03;;;12.98;75.72
66398;BME280;54877;51.504;3.894;2023-11-21T05:47:38;101434.03;;;12.98;75.46
66398;BME280;54877;51.504;3.894;2023-11-21T05:50:05;101434.03;;;12.98;75.70
66398;BME280;54877;51.504;3.894;2023-11-21T05:52:31;101434.03;;;12.98;75.58
66398;BME280;54877;51.504;3.894;2023-11-21T05:54:57;101444.66;;;12.98;75.58
66398;BME280;54877;51.504;3.894;2023-11-21T05:57:22;101456.16;;;12.99;75.49
66398;BME280;54877;51.504;3.894;2023-11-21T05:59:48;101456.25;;;12.98;75.67
66398;BME280;54877;51.504;3.894;2023-11-21T06:02:13;101465.94;;;12.98;75.89
66398;BME280;54877;51.504;3.894;2023-11-21T06:04:39;101471.19;;;13.00;75.99
66398;BME280;54877;51.504;3.894;2023-11-21T06:07:04;101471.25;;;12.98;76.09
66398;BME280;54877;51.504;3.894;2023-11-21T06:09:29;101469.41;;;13.01;76.36
66398;BME280;54877;51.504;3.894;2023-11-21T06:11:54;101478.16;;;13.03;76.38
66398;BME280;54877;51.504;3.894;2023-11-21T06:14:20;101463.84;;;13.05;76.46
66398;BME280;54877;51.504;3.894;2023-11-21T06:16:46;101470.94;;;13.05;76.41
66398;BME280;54877;51.504;3.894;2023-11-21T06:19:12;101480.59;;;13.07;76.37
66398;BME280;54877;51.504;3.894;2023-11-21T06:21:37;101478.72;;;13.09;76.23
66398;BME280;54877;51.504;3.894;2023-11-21T06:24:03;101476.91;;;13.10;76.41
66398;BME280;54877;51.504;3.894;2023-11-21T06:26:29;101477.78;;;13.10;76.42
66398;BME280;54877;51.504;3.894;2023-11-21T06:28:54;101487.13;;;13.00;76.79
66398;BME280;54877;51.504;3.894;2023-11-21T06:31:19;101490.31;;;13.08;76.40
66398;BME280;54877;51.504;3.894;2023-11-21T06:33:46;101484.03;;;13.09;76.63
66398;BME280;54877;51.504;3.894;2023-11-21T06:36:12;101489.34;;;13.09;76.59
66398;BME280;54877;51.504;3.894;2023-11-21T06:38:37;101499.31;;;13.04;76.69
66398;BME280;54877;51.504;3.894;2023-11-21T06:41:02;101504.56;;;13.06;76.68
66398;BME280;54877;51.504;3.894;2023-11-21T06:43:29;101500.97;;;13.07;76.99
66398;BME280;54877;51.504;3.894;2023-11-21T06:45:56;101505.38;;;13.08;76.78
66398;BME280;54877;51.504;3.894;2023-11-21T06:48:21;101511.75;;;13.04;77.00
66398;BME280;54877;51.504;3.894;2023-11-21T06:50:46;101510.03;;;13.03;76.76
66398;BME280;54877;51.504;3.894;2023-11-21T06:53:11;101518.88;;;13.03;76.75
66398;BME280;54877;51.504;3.894;2023-11-21T06:55:38;101524.56;;;12.95;77.12
66398;BME280;54877;51.504;3.894;2023-11-21T06:58:03;101525.72;;;12.90;77.00
66398;BME280;54877;51.504;3.894;2023-11-21T07:00:30;101526.88;;;12.84;77.30
66398;BME280;54877;51.504;3.894;2023-11-21T07:02:55;101539.38;;;12.82;77.37
66398;BME280;54877;51.504;3.894;2023-11-21T07:05:20;101538.38;;;12.85;77.06
66398;BME280;54877;51.504;3.894;2023-11-21T07:07:46;101549.13;;;12.82;77.18
66398;BME280;54877;51.504;3.894;2023-11-21T07:10:11;101560.38;;;12.70;77.15
66398;BME280;54877;51.504;3.894;2023-11-21T07:12:36;101564.22;;;12.81;76.75
66398;BME280;54877;51.504;3.894;2023-11-21T07:15:02;101570.41;;;12.82;76.68
66398;BME280;54877;51.504;3.894;2023-11-21T07:17:28;101569.69;;;12.78;76.70
66398;BME280;54877;51.504;3.894;2023-11-21T07:19:53;101582.13;;;12.78;76.74
66398;BME280;54877;51.504;3.894;2023-11-21T07:22:18;101581.25;;;12.77;76.60
66398;BME280;54877;51.504;3.894;2023-11-21T07:24:48;101584.91;;;12.56;77.07
66398;BME280;54877;51.504;3.894;2023-11-21T07:27:13;101590.97;;;12.78;76.74
66398;BME280;54877;51.504;3.894;2023-11-21T07:29:38;101586.47;;;12.79;76.56
66398;BME280;54877;51.504;3.894;2023-11-21T07:32:04;101587.34;;;12.79;76.63
66398;BME280;54877;51.504;3.894;2023-11-21T07:34:30;101595.75;;;12.70;76.82
66398;BME280;54877;51.504;3.894;2023-11-21T07:36:55;101604.16;;;12.80;76.45
66398;BME280;54877;51.504;3.894;2023-11-21T07:39:21;101610.19;;;12.83;76.56
66398;BME280;54877;51.504;3.894;2023-11-21T07:41:46;101616.38;;;12.84;76.56
66398;BME280;54877;51.504;3.894;2023-11-21T07:44:13;101611.91;;;12.84;76.52
66398;BME280;54877;51.504;3.894;2023-11-21T07:46:38;101614.50;;;12.86;76.49
66398;BME280;54877;51.504;3.894;2023-11-21T07:49:04;101617.16;;;12.86;76.37
66398;BME280;54877;51.504;3.894;2023-11-21T07:51:29;101614.56;;;12.84;76.63
66398;BME280;54877;51.504;3.894;2023-11-21T07:53:54;101616.94;;;12.90;76.35
66398;BME280;54877;51.504;3.894;2023-11-21T07:56:19;101632.75;;;12.93;76.34
66398;BME280;54877;51.504;3.894;2023-11-21T07:58:44;101631.00;;;12.92;76.25
66398;BME280;54877;51.504;3.894;2023-11-21T08:01:10;101636.03;;;12.98;76.27
66398;BME280;54877;51.504;3.894;2023-11-21T08:03:36;101635.91;;;13.02;76.12
66398;BME280;54877;51.504;3.894;2023-11-21T08:06:01;101643.69;;;13.06;76.03
66398;BME280;54877;51.504;3.894;2023-11-21T08:08:28;101639.28;;;13.05;76.06
66398;BME280;54877;51.504;3.894;2023-11-21T08:10:54;101647.88;;;13.12;75.98
66398;BME280;54877;51.504;3.894;2023-11-21T08:13:25;101651.50;;;13.09;76.23
66398;BME280;54877;51.504;3.894;2023-11-21T08:15:53;101649.72;;;13.10;76.37
66398;BME280;54877;51.504;3.894;2023-11-21T08:18:19;101651.19;;;13.17;76.32
66398;BME280;54877;51.504;3.894;2023-11-21T08:20:44;101661.66;;;13.20;76.34
66398;BME280;54877;51.504;3.894;2023-11-21T08:23:12;101665.84;;;13.25;76.13
66398;BME280;54877;51.504;3.894;2023-11-21T08:25:37;101657.78;;;13.27;76.38
66398;BME280;54877;51.504;3.894;2023-11-21T08:28:03;101662.94;;;13.30;76.29
66398;BME280;54877;51.504;3.894;2023-11-21T08:30:29;101662.84;;;13.31;76.45
66398;BME280;54877;51.504;3.894;2023-11-21T08:32:55;101668.91;;;13.35;76.62
66398;BME280;54877;51.504;3.894;2023-11-21T08:35:23;101663.53;;;13.36;76.50
66398;BME280;54877;51.504;3.894;2023-11-21T08:37:50;101663.28;;;13.41;76.53
66398;BME280;54877;51.504;3.894;2023-11-21T08:40:15;101668.31;;;13.47;76.61
66398;BME280;54877;51.504;3.894;2023-11-21T08:42:42;101672.69;;;13.48;76.49
66398;BME280;54877;51.504;3.894;2023-11-21T08:45:07;101677.84;;;13.51;76.78
66398;BME280;54877;51.504;3.894;2023-11-21T08:47:33;101679.34;;;13.57;76.61
66398;BME280;54877;51.504;3.894;2023-11-21T08:49:59;101678.50;;;13.56;77.17
66398;BME280;54877;51.504;3.894;2023-11-21T08:52:24;101681.72;;;13.63;77.23
66398;BME280;54877;51.504;3.894;2023-11-21T08:54:50;101687.91;;;13.63;77.39
66398;BME280;54877;51.504;3.894;2023-11-21T08:57:21;101696.63;;;13.67;77.51
66398;BME280;54877;51.504;3.894;2023-11-21T08:59:46;101695.31;;;13.75;77.13
66398;BME280;54877;51.504;3.894;2023-11-21T09:02:12;101689.56;;;13.66;77.57
66398;BME280;54877;51.504;3.894;2023-11-21T09:04:37;101695.31;;;13.75;77.09
66398;BME280;54877;51.504;3.894;2023-11-21T09:07:03;101709.88;;;13.85;76.92
66398;BME280;54877;51.504;3.894;2023-11-21T09:09:28;101709.44;;;13.94;76.69
66398;BME280;54877;51.504;3.894;2023-11-21T09:11:54;101709.63;;;13.90;76.04
66398;BME280;54877;51.504;3.894;2023-11-21T09:14:20;101707.69;;;13.93;75.38
66398;BME280;54877;51.504;3.894;2023-11-21T09:16:45;101704.72;;;13.99;75.29
66398;BME280;54877;51.504;3.894;2023-11-21T09:19:10;101705.22;;;14.07;74.89
66398;BME280;54877;51.504;3.894;2023-11-21T09:21:36;101707.56;;;14.13;74.67
66398;BME280;54877;51.504;3.894;2023-11-21T09:24:02;101712.81;;;14.15;73.81
66398;BME280;54877;51.504;3.894;2023-11-21T09:26:27;101723.75;;;14.09;73.69
66398;BME280;54877;51.504;3.894;2023-11-21T09:28:54;101726.06;;;14.17;73.41
66398;BME280;54877;51.504;3.894;2023-11-21T09:31:21;101738.34;;;14.19;73.28
66398;BME280;54877;51.504;3.894;2023-11-21T09:33:47;101750.66;;;14.22;73.23
66398;BME280;54877;51.504;3.894;2023-11-21T09:36:13;101745.19;;;14.25;72.90
66398;BME280;54877;51.504;3.894;2023-11-21T09:38:41;101750.81;;;14.19;72.84
66398;BME280;54877;51.504;3.894;2023-11-21T09:41:09;101763.00;;;14.23;72.60
66398;BME280;54877;51.504;3.894;2023-11-21T09:43:37;101767.31;;;14.25;72.19
66398;BME280;54877;51.504;3.894;2023-11-21T09:46:03;101779.66;;;14.28;72.28
66398;BME280;54877;51.504;3.894;2023-11-21T09:48:30;101780.31;;;14.33;72.53
66398;BME280;54877;51.504;3.894;2023-11-21T09:50:57;101777.00;;;14.45;72.22
66398;BME280;54877;51.504;3.894;2023-11-21T09:53:23;101782.97;;;14.50;72.05
66398;BME280;54877;51.504;3.894;2023-11-21T09:55:51;101787.81;;;14.42;72.63
66398;BME280;54877;51.504;3.894;2023-11-21T09:58:17;101790.13;;;14.49;71.72
66398;BME280;54877;51.504;3.894;2023-11-21T10:00:45;101788.13;;;14.53;71.36
66398;BME280;54877;51.504;3.894;2023-11-21T10:03:11;101797.41;;;14.46;71.25
66398;BME280;54877;51.504;3.894;2023-11-21T10:05:37;101794.97;;;14.41;70.77
66398;BME280;54877;51.504;3.894;2023-11-21T10:08:09;101797.78;;;14.38;70.40
66398;BME280;54877;51.504;3.894;2023-11-21T10:10:35;101805.06;;;14.35;70.30
66398;BME280;54877;51.504;3.894;2023-11-21T10:13:01;101809.09;;;14.25;70.27
66398;BME280;54877;51.504;3.894;2023-11-21T10:15:27;101816.44;;;14.20;70.87
66398;BME280;54877;51.504;3.894;2023-11-21T10:17:53;101817.16;;;14.23;70.73
66398;BME280;54877;51.504;3.894;2023-11-21T10:20:20;101824.66;;;14.15;70.69
66398;BME280;54877;51.504;3.894;2023-11-21T10:22:45;101826.44;;;14.14;70.88
66398;BME280;54877;51.504;3.894;2023-11-21T10:25:10;101837.91;;;14.17;71.04
66398;BME280;54877;51.504;3.894;2023-11-21T10:27:39;101838.84;;;14.16;71.05
66398;BME280;54877;51.504;3.894;2023-11-21T10:30:07;101845.22;;;14.11;71.19
66398;BME280;54877;51.504;3.894;2023-11-21T10:32:40;101835.31;;;14.15;70.83
66398;BME280;54877;51.504;3.894;2023-11-21T10:35:06;101840.34;;;14.21;70.99
66398;BME280;54877;51.504;3.894;2023-11-21T10:37:35;101845.44;;;14.26;70.65
66398;BME280;54877;51.504;3.894;2023-11-21T10:40:00;101842.63;;;14.29;70.64
66398;BME280;54877;51.504;3.894;2023-11-21T10:42:25;101843.72;;;14.25;70.59
66398;BME280;54877;51.504;3.894;2023-11-21T10:44:52;101843.28;;;14.34;70.54
66398;BME280;54877;51.504;3.894;2023-11-21T10:47:17;101846.16;;;14.29;70.99
66398;BME280;54877;51.504;3.894;2023-11-21T10:49:44;101837.38;;;14.27;70.60
66398;BME280;54877;51.504;3.894;2023-11-21T10:52:09;101842.56;;;14.30;70.69
66398;BME280;54877;51.504;3.894;2023-11-21T10:54:42;101840.09;;;14.26;70.81
66398;BME280;54877;51.504;3.894;2023-11-21T10:57:07;101839.03;;;14.30;70.60
66398;BME280;54877;51.504;3.894;2023-11-21T10:59:33;101846.53;;;14.22;70.51
66398;BME280;54877;51.504;3.894;2023-11-21T11:01:58;101841.34;;;14.19;70.37
66398;BME280;54877;51.504;3.894;2023-11-21T11:04:26;101849.63;;;14.12;70.16
66398;BME280;54877;51.504;3.894;2023-11-21T11:06:57;101852.44;;;14.09;70.47
66398;BME280;54877;51.504;3.894;2023-11-21T11:09:22;101848.13;;;14.07;70.53
66398;BME280;54877;51.504;3.894;2023-11-21T11:11:48;101854.09;;;14.12;70.23
66398;BME280;54877;51.504;3.894;2023-11-21T11:14:14;101857.41;;;14.17;70.14
66398;BME280;54877;51.504;3.894;2023-11-21T11:16:39;101853.09;;;14.14;70.21
66398;BME280;54877;51.504;3.894;2023-11-21T11:19:10;101855.41;;;14.22;70.29
66398;BME280;54877;51.504;3.894;2023-11-21T11:26:47;101864.69;;;14.13;70.32
66398;BME280;54877;51.504;3.894;2023-11-21T11:29:25;101864.88;;;14.09;70.26
66398;BME280;54877;51.504;3.894;2023-11-21T11:37:43;101870.22;;;13.90;70.73
66398;BME280;54877;51.504;3.894;2023-11-21T11:40:10;101876.47;;;13.89;70.85
66398;BME280;54877;51.504;3.894;2023-11-21T11:42:36;101874.13;;;13.83;70.88
66398;BME280;54877;51.504;3.894;2023-11-21T11:45:01;101882.25;;;13.80;71.00
66398;BME280;54877;51.504;3.894;2023-11-21T11:47:29;101881.44;;;13.78;71.20
66398;BME280;54877;51.504;3.894;2023-11-21T11:54:59;101898.88;;;13.85;71.10
66398;BME280;54877;51.504;3.894;2023-11-21T11:57:24;101901.13;;;13.94;70.99
66398;BME280;54877;51.504;3.894;2023-11-21T12:02:37;101906.13;;;14.00;70.76
66398;BME280;54877;51.504;3.894;2023-11-21T12:05:09;101901.63;;;14.02;70.88
66398;BME280;54877;51.504;3.894;2023-11-21T12:07:41;101910.09;;;14.10;70.41
66398;BME280;54877;51.504;3.894;2023-11-21T12:10:07;101909.00;;;14.14;70.60
66398;BME280;54877;51.504;3.894;2023-11-21T12:12:37;101903.81;;;14.11;70.61
66398;BME280;54877;51.504;3.894;2023-11-21T12:15:04;101911.03;;;14.09;70.65
66398;BME280;54877;51.504;3.894;2023-11-21T12:17:30;101917.28;;;14.08;70.84
66398;BME280;54877;51.504;3.894;2023-11-21T12:20:01;101914.19;;;14.18;70.69
66398;BME280;54877;51.504;3.894;2023-11-21T12:22:27;101905.41;;;14.16;70.60
66398;BME280;54877;51.504;3.894;2023-11-21T12:24:53;101913.47;;;14.14;70.49
66398;BME280;54877;51.504;3.894;2023-11-21T12:27:19;101912.88;;;14.26;70.31
66398;BME280;54877;51.504;3.894;2023-11-21T12:29:45;101914.50;;;14.30;70.11
66398;BME280;54877;51.504;3.894;2023-11-21T12:32:11;101916.81;;;14.38;70.02
66398;BME280;54877;51.504;3.894;2023-11-21T12:34:36;101911.47;;;14.38;69.71
66398;BME280;54877;51.504;3.894;2023-11-21T12:37:03;101918.00;;;14.31;69.51
66398;BME280;54877;51.504;3.894;2023-11-21T12:39:29;101913.63;;;14.30;69.54
66398;BME280;54877;51.504;3.894;2023-11-21T12:41:54;101920.66;;;14.31;69.61
66398;BME280;54877;51.504;3.894;2023-11-21T12:44:19;101911.88;;;14.29;69.58
66398;BME280;54877;51.504;3.894;2023-11-21T12:46:44;101914.44;;;14.32;69.64
66398;BME280;54877;51.504;3.894;2023-11-21T12:49:12;101926.69;;;14.36;69.86
66398;BME280;54877;51.504;3.894;2023-11-21T12:51:42;101928.00;;;14.44;69.99
66398;BME280;54877;51.504;3.894;2023-11-21T12:54:07;101931.78;;;14.40;69.73
66398;BME280;54877;51.504;3.894;2023-11-21T12:56:38;101940.00;;;14.36;69.51
66398;BME280;54877;51.504;3.894;2023-11-21T12:59:03;101948.00;;;14.36;69.66
66398;BME280;54877;51.504;3.894;2023-11-21T13:01:29;101950.97;;;14.09;69.72